Time;durP1;ratioP1;P1;durP2;ratioP2;P2;SDS_P1;SDS_P2;PMS_P1;PMS_P2;Temp;Humidity;BMP_temperature;BMP_pressure;BME280_temperature;BME280_humidity;BME280_pressure;Samples;Min_cycle;Max_cycle;Signal;HPM_P1;HPM_P2
2023/07/06 00:00:41;;;;;;;4.60;4.20;;;;;;;19.46;100.00;99944.91;107105;1253;60009;-53
2023/07/06 00:03:09;;;;;;;5.50;3.10;;;;;;;19.41;100.00;99946.88;105100;1261;71725;-52
2023/07/06 00:05:36;;;;;;;4.30;2.30;;;;;;;19.36;100.00;99949.16;105004;1255;65600;-51
2023/07/06 00:08:05;;;;;;;3.20;3.00;;;;;;;19.31;100.00;99950.15;104858;1260;71204;-53
2023/07/06 00:10:34;;;;;;;3.90;3.50;;;;;;;19.27;100.00;99947.38;105153;1251;60928;-53
2023/07/06 00:13:01;;;;;;;6.00;3.70;;;;;;;19.26;100.00;99947.59;105136;1257;59640;-53
2023/07/06 00:15:30;;;;;;;4.90;3.70;;;;;;;19.26;100.00;99952.35;105036;1257;72955;-51
2023/07/06 00:17:58;;;;;;;5.40;2.80;;;;;;;19.23;100.00;99954.15;105206;1258;67560;-54
2023/07/06 00:20:25;;;;;;;5.00;2.80;;;;;;;19.23;100.00;99952.95;105128;1258;73486;-51
2023/07/06 00:22:54;;;;;;;5.00;3.60;;;;;;;19.22;100.00;99950.85;105036;1254;60387;-53
2023/07/06 00:25:21;;;;;;;4.10;3.10;;;;;;;19.21;100.00;99955.67;105179;1257;59936;-53
2023/07/06 00:27:48;;;;;;;3.00;2.80;;;;;;;19.19;100.00;99954.57;105108;1254;72950;-52
2023/07/06 00:30:18;;;;;;;4.00;2.90;;;;;;;19.18;100.00;99951.36;104929;1257;66706;-54
2023/07/06 00:32:47;;;;;;;4.00;3.50;;;;;;;19.18;100.00;99950.84;104837;1258;74422;-52
2023/07/06 00:35:15;;;;;;;7.60;3.80;;;;;;;19.15;100.00;99949.83;109125;1254;62452;-55
2023/07/06 00:37:42;;;;;;;5.40;3.00;;;;;;;19.11;100.00;99949.77;109116;1253;58758;-54
2023/07/06 00:40:13;;;;;;;10.60;4.00;;;;;;;19.06;100.00;99947.44;109138;1260;73474;-55
2023/07/06 00:42:41;;;;;;;4.60;2.60;;;;;;;19.01;100.00;99944.77;109234;1254;66095;-54
2023/07/06 00:45:12;;;;;;;3.00;2.00;;;;;;;18.99;100.00;99948.36;109012;1253;71180;-53
2023/07/06 00:47:48;;;;;;;5.40;3.70;;;;;;;19.01;100.00;99947.67;109134;1256;61732;-55
2023/07/06 00:50:20;;;;;;;6.40;3.30;;;;;;;19.01;100.00;99943.29;109127;1259;58737;-53
2023/07/06 00:52:54;;;;;;;3.40;2.90;;;;;;;19.02;100.00;99941.41;108975;1254;73086;-54
2023/07/06 00:55:25;;;;;;;5.70;2.40;;;;;;;19.04;100.00;99943.41;109077;1255;66993;-54
2023/07/06 00:57:55;;;;;;;4.30;2.50;;;;;;;19.05;100.00;99943.90;109107;1254;72618;-53
2023/07/06 01:00:23;;;;;;;3.30;2.40;;;;;;;19.06;100.00;99945.99;109127;1254;60467;-53
2023/07/06 01:02:52;;;;;;;3.00;2.30;;;;;;;19.07;100.00;99948.06;109102;1253;58757;-54
2023/07/06 01:05:21;;;;;;;4.50;2.50;;;;;;;19.09;100.00;99947.16;109189;1254;72316;-55
2023/07/06 01:07:50;;;;;;;5.50;2.30;;;;;;;19.11;100.00;99943.40;107402;1254;65504;-53
2023/07/06 01:10:17;;;;;;;5.30;2.40;;;;;;;19.14;100.00;99942.98;105388;1254;72459;-54
2023/07/06 01:12:46;;;;;;;4.00;2.20;;;;;;;19.15;100.00;99943.80;105673;1252;61699;-52
2023/07/06 01:15:16;;;;;;;2.40;2.20;;;;;;;19.15;100.00;99942.31;104878;1251;60052;-53
2023/07/06 01:17:54;;;;;;;5.40;3.00;;;;;;;19.16;100.00;99939.89;105186;1256;73008;-53
2023/07/06 01:20:26;;;;;;;3.30;2.70;;;;;;;19.12;100.00;99938.37;105245;1254;65658;-52
2023/07/06 01:23:12;;;;;;;7.40;3.70;;;;;;;19.11;100.00;99938.69;104895;1258;71762;-53
2023/07/06 01:26:13;;;;;;;4.40;3.30;;;;;;;19.11;100.00;99936.63;104987;1260;60739;-54
2023/07/06 01:28:53;;;;;;;5.00;3.30;;;;;;;19.09;100.00;99935.18;105042;1259;60236;-52
2023/07/06 01:31:42;;;;;;;4.50;3.50;;;;;;;19.01;100.00;99934.16;105132;1257;71779;-54
2023/07/06 01:34:34;;;;;;;3.40;3.20;;;;;;;18.97;100.00;99933.81;105039;1258;66784;-54
2023/07/06 01:37:17;;;;;;;4.60;3.90;;;;;;;18.97;100.00;99932.73;105124;1254;72435;-54
2023/07/06 01:39:45;;;;;;;4.90;2.90;;;;;;;18.98;100.00;99929.33;105485;1255;60425;-54
2023/07/06 01:42:25;;;;;;;3.80;3.40;;;;;;;19.00;100.00;99928.27;105057;1260;59653;-52
2023/07/06 01:44:56;;;;;;;4.00;3.70;;;;;;;19.01;100.00;99933.86;104994;1258;72949;-54
2023/07/06 01:47:24;;;;;;;11.20;5.10;;;;;;;19.01;100.00;99941.10;105148;1260;68936;-55
2023/07/06 01:49:52;;;;;;;5.60;3.20;;;;;;;19.02;100.00;99944.65;104906;1255;72438;-53
2023/07/06 01:52:33;;;;;;;4.70;3.50;;;;;;;19.03;100.00;99944.80;104914;1254;61742;-54
2023/07/06 01:55:23;;;;;;;4.70;3.70;;;;;;;19.02;100.00;99938.29;105020;1259;59621;-54
2023/07/06 01:57:53;;;;;;;4.90;3.80;;;;;;;19.01;100.00;99930.52;105037;1259;73068;-55
2023/07/06 02:00:29;;;;;;;7.50;2.70;;;;;;;19.03;100.00;99927.65;104795;1254;66748;-54
2023/07/06 02:02:56;;;;;;;3.70;3.40;;;;;;;19.05;100.00;99929.36;105333;1260;71479;-54
2023/07/06 02:05:24;;;;;;;4.20;3.70;;;;;;;19.04;100.00;99929.96;104989;1258;59812;-54
2023/07/06 02:07:51;;;;;;;3.70;3.50;;;;;;;19.05;100.00;99930.23;105033;1261;59601;-52
2023/07/06 02:10:19;;;;;;;4.40;4.10;;;;;;;19.06;100.00;99931.03;105165;1255;73165;-54
2023/07/06 02:12:49;;;;;;;4.60;3.90;;;;;;;19.07;100.00;99933.68;105042;1260;65553;-54
2023/07/06 02:15:18;;;;;;;4.70;4.30;;;;;;;19.08;100.00;99937.96;105051;1264;72660;-54
2023/07/06 02:17:46;;;;;;;4.10;3.70;;;;;;;19.10;100.00;99935.11;105120;1252;60779;-55
2023/07/06 02:20:15;;;;;;;4.40;4.20;;;;;;;19.11;100.00;99931.55;105184;1254;60039;-55
2023/07/06 02:22:43;;;;;;;4.40;4.20;;;;;;;19.13;100.00;99927.02;104890;1254;73090;-52
2023/07/06 02:25:11;;;;;;;4.60;3.50;;;;;;;19.12;100.00;99923.46;105083;1257;66785;-54
2023/07/06 02:27:39;;;;;;;5.10;4.00;;;;;;;19.09;100.00;99920.77;105046;1254;71473;-53
2023/07/06 02:30:07;;;;;;;5.50;3.80;;;;;;;19.06;100.00;99915.23;104989;1260;61631;-53
2023/07/06 02:32:35;;;;;;;8.80;4.40;;;;;;;19.05;100.00;99908.00;105610;1254;60273;-55
2023/07/06 02:35:02;;;;;;;3.20;3.00;;;;;;;19.06;100.00;99905.08;104968;1259;71760;-54
2023/07/06 02:37:30;;;;;;;4.30;3.30;;;;;;;19.08;100.00;99903.26;105324;1258;66234;-52
2023/07/06 02:39:58;;;;;;;4.60;3.50;;;;;;;19.11;100.00;99892.63;106158;1254;71890;-54
2023/07/06 02:42:26;;;;;;;3.30;2.70;;;;;;;19.16;100.00;99891.13;105330;1260;61706;-54
2023/07/06 02:44:57;;;;;;;3.70;3.40;;;;;;;19.21;100.00;99895.11;105636;1260;60047;-53
2023/07/06 02:47:27;;;;;;;3.20;2.90;;;;;;;19.28;100.00;99904.17;105294;1257;73789;-54
2023/07/06 02:49:57;;;;;;;7.50;4.00;;;;;;;19.34;100.00;99906.57;105264;1257;66771;-54
2023/07/06 02:52:24;;;;;;;4.60;3.90;;;;;;;19.40;100.00;99904.09;105027;1254;71679;-54
2023/07/06 02:54:53;;;;;;;4.20;3.40;;;;;;;19.45;100.00;99901.83;105486;1254;60432;-53
2023/07/06 02:57:21;;;;;;;4.90;2.70;;;;;;;19.50;100.00;99904.38;104957;1255;60511;-52
2023/07/06 02:59:48;;;;;;;3.40;3.00;;;;;;;19.54;100.00;99904.55;104901;1254;71574;-52
2023/07/06 03:02:16;;;;;;;6.00;3.10;;;;;;;19.56;100.00;99905.62;105113;1258;67734;-55
2023/07/06 03:04:44;;;;;;;2.70;2.50;;;;;;;19.59;100.00;99904.73;104881;1254;72676;-54
2023/07/06 03:07:11;;;;;;;4.10;2.50;;;;;;;19.59;100.00;99906.89;104946;1254;60406;-55
2023/07/06 03:09:39;;;;;;;6.90;2.40;;;;;;;19.59;100.00;99910.51;104986;1257;59907;-55
2023/07/06 03:12:09;;;;;;;3.30;2.60;;;;;;;19.61;100.00;99908.52;104924;1260;72653;-55
2023/07/06 03:14:36;;;;;;;3.20;3.00;;;;;;;19.63;100.00;99907.44;104948;1258;66798;-52
2023/07/06 03:17:03;;;;;;;3.70;2.70;;;;;;;19.66;100.00;99906.45;104927;1260;70219;-52
2023/07/06 03:19:31;;;;;;;4.60;2.70;;;;;;;19.70;100.00;99909.30;104932;1254;61080;-53
2023/07/06 03:21:58;;;;;;;4.00;2.20;;;;;;;19.71;100.00;99907.37;105079;1252;60020;-51
2023/07/06 03:24:26;;;;;;;5.70;2.30;;;;;;;19.73;100.00;99910.49;106444;1255;71853;-52
2023/07/06 03:26:54;;;;;;;4.60;2.40;;;;;;;19.76;100.00;99905.48;104868;1258;66875;-52
2023/07/06 03:29:21;;;;;;;4.80;2.70;;;;;;;19.77;100.00;99902.50;107167;1260;72569;-51
2023/07/06 03:31:49;;;;;;;2.20;2.00;;;;;;;19.76;100.00;99900.52;104850;1253;62225;-54
2023/07/06 03:34:18;;;;;;;4.00;2.00;;;;;;;19.78;100.00;99899.85;105052;1254;60383;-54
2023/07/06 03:36:45;;;;;;;2.30;2.20;;;;;;;19.79;100.00;99892.42;104844;1258;74286;-52
2023/07/06 03:39:12;;;;;;;2.40;2.30;;;;;;;19.81;100.00;99885.59;104741;1259;67761;-52
2023/07/06 03:41:40;;;;;;;4.10;2.70;;;;;;;19.81;100.00;99882.67;104889;1257;71451;-55
2023/07/06 03:44:08;;;;;;;2.30;2.00;;;;;;;19.80;100.00;99879.79;104917;1254;62178;-53
2023/07/06 03:46:36;;;;;;;4.80;2.90;;;;;;;19.83;100.00;99881.00;104998;1253;60552;-54
2023/07/06 03:49:04;;;;;;;4.60;3.70;;;;;;;19.85;100.00;99871.56;109188;1254;72641;-55
2023/07/06 03:51:32;;;;;;;3.00;2.50;;;;;;;19.88;100.00;99862.21;109156;1254;66780;-52
2023/07/06 03:54:00;;;;;;;3.10;2.90;;;;;;;19.91;100.00;99855.34;109150;1254;72448;-52
2023/07/06 03:56:27;;;;;;;3.40;3.10;;;;;;;19.95;100.00;99851.95;109167;1254;60440;-53
2023/07/06 03:58:56;;;;;;;3.20;2.90;;;;;;;19.98;100.00;99851.87;109128;1253;59609;-53
2023/07/06 04:01:25;;;;;;;4.20;3.80;;;;;;;20.03;100.00;99851.96;109054;1253;73747;-51
2023/07/06 04:03:55;;;;;;;5.00;4.60;;;;;;;20.09;100.00;99847.62;109058;1254;66753;-51
2023/07/06 04:06:24;;;;;;;3.90;3.60;;;;;;;20.17;100.00;99837.66;109136;1254;71416;-52
2023/07/06 04:08:52;;;;;;;5.40;4.40;;;;;;;20.26;100.00;99826.09;108914;1253;62121;-53
2023/07/06 04:11:20;;;;;;;4.90;4.60;;;;;;;20.37;100.00;99819.34;107771;1252;60005;-53
2023/07/06 04:13:47;;;;;;;5.30;4.90;;;;;;;20.48;100.00;99814.77;105001;1253;73825;-52
2023/07/06 04:16:18;;;;;;;6.30;4.30;;;;;;;20.58;100.00;99813.78;104934;1254;67479;-54
2023/07/06 04:18:46;;;;;;;4.20;3.90;;;;;;;20.69;100.00;99814.63;104948;1254;71202;-54
2023/07/06 04:21:14;;;;;;;5.30;4.10;;;;;;;20.79;100.00;99808.06;105083;1256;60581;-53
2023/07/06 04:23:41;;;;;;;5.40;4.20;;;;;;;20.90;100.00;99809.86;105225;1254;61346;-52
2023/07/06 04:26:13;;;;;;;6.80;4.70;;;;;;;21.00;100.00;99811.13;105462;1257;72599;-54
2023/07/06 04:28:42;;;;;;;3.90;3.60;;;;;;;21.10;100.00;99813.66;105593;1254;65812;-53
2023/07/06 04:31:15;;;;;;;6.20;3.70;;;;;;;21.18;100.00;99816.60;105114;1257;71204;-52
2023/07/06 04:33:45;;;;;;;4.80;4.40;;;;;;;21.27;100.00;99814.33;105237;1257;61612;-55
2023/07/06 04:36:17;;;;;;;4.40;3.90;;;;;;;21.35;100.00;99814.48;105132;1251;60521;-55
2023/07/06 04:38:45;;;;;;;4.20;3.90;;;;;;;21.43;100.00;99811.76;105162;1256;73772;-52
2023/07/06 04:41:13;;;;;;;4.20;3.80;;;;;;;21.51;100.00;99805.20;105241;1257;65764;-55
2023/07/06 04:43:40;;;;;;;5.00;4.10;;;;;;;21.59;100.00;99801.20;105108;1257;71381;-54
2023/07/06 04:46:08;;;;;;;4.30;4.00;;;;;;;21.67;100.00;99804.81;104962;1254;61722;-54
2023/07/06 04:48:36;;;;;;;4.20;3.70;;;;;;;21.76;100.00;99798.25;105079;1257;60450;-54
2023/07/06 04:51:03;;;;;;;3.90;3.60;;;;;;;21.84;100.00;99796.60;105464;1257;72837;-52
2023/07/06 04:53:32;;;;;;;4.40;3.30;;;;;;;21.93;100.00;99795.42;104952;1256;67670;-53
2023/07/06 04:56:00;;;;;;;6.50;4.10;;;;;;;21.99;100.00;99787.13;105042;1257;72630;-53
2023/07/06 04:58:31;;;;;;;4.90;3.80;;;;;;;22.07;100.00;99782.77;104948;1251;60643;-54
2023/07/06 05:01:05;;;;;;;4.50;4.10;;;;;;;22.14;100.00;99784.95;105270;1257;60524;-54
2023/07/06 05:03:35;;;;;;;7.10;3.90;;;;;;;22.22;100.00;99782.77;105171;1257;74317;-54
2023/07/06 05:06:07;;;;;;;4.80;3.60;;;;;;;22.29;100.00;99776.96;105608;1251;66656;-53
2023/07/06 05:08:34;;;;;;;4.80;3.50;;;;;;;22.38;100.00;99775.38;105342;1257;71718;-52
2023/07/06 05:11:04;;;;;;;5.00;4.40;;;;;;;22.46;100.00;99769.27;105109;1254;60467;-51
2023/07/06 05:13:32;;;;;;;4.10;3.40;;;;;;;22.55;100.00;99757.95;105745;1256;60476;-52
2023/07/06 05:16:00;;;;;;;5.20;3.80;;;;;;;22.63;100.00;99754.23;105488;1254;73824;-55
2023/07/06 05:18:29;;;;;;;4.70;3.90;;;;;;;22.72;100.00;99751.94;105046;1257;66874;-54
2023/07/06 05:20:57;;;;;;;3.30;2.90;;;;;;;22.81;100.00;99749.23;105180;1256;72689;-53
2023/07/06 05:23:28;;;;;;;4.50;3.70;;;;;;;22.91;100.00;99742.16;105177;1257;60556;-55
2023/07/06 05:26:00;;;;;;;3.30;2.70;;;;;;;23.00;100.00;99740.15;105894;1254;60644;-53
2023/07/06 05:28:29;;;;;;;6.00;3.40;;;;;;;23.08;100.00;99738.77;105149;1254;73566;-57
2023/07/06 05:30:57;;;;;;;3.40;3.10;;;;;;;23.15;100.00;99740.26;105502;1254;66744;-54
2023/07/06 05:33:25;;;;;;;5.20;4.00;;;;;;;23.21;100.00;99735.22;105495;1254;72726;-52
2023/07/06 05:35:53;;;;;;;4.80;4.40;;;;;;;23.28;100.00;99731.14;105096;1254;60558;-55
2023/07/06 05:38:20;;;;;;;5.20;4.30;;;;;;;23.34;100.00;99725.53;105585;1254;60495;-53
2023/07/06 05:40:48;;;;;;;10.60;5.20;;;;;;;23.40;100.00;99719.75;104904;1257;73829;-54
2023/07/06 05:43:17;;;;;;;8.90;4.30;;;;;;;23.46;100.00;99717.88;104718;1255;67231;-53
2023/07/06 05:45:46;;;;;;;9.60;4.70;;;;;;;23.53;100.00;99718.80;104679;1254;73209;-53
2023/07/06 05:48:14;;;;;;;7.30;4.10;;;;;;;23.61;100.00;99711.78;104879;1258;60862;-55
2023/07/06 05:50:42;;;;;;;8.00;3.40;;;;;;;23.70;100.00;99706.09;104825;1256;60574;-54
2023/07/06 05:53:09;;;;;;;3.30;2.80;;;;;;;23.81;100.00;99705.10;105875;1253;73811;-54
2023/07/06 05:55:36;;;;;;;3.90;3.60;;;;;;;23.93;100.00;99698.32;104784;1257;66774;-54
2023/07/06 05:58:04;;;;;;;7.10;3.00;;;;;;;24.04;100.00;99694.41;105141;1257;72643;-52
2023/07/06 06:00:36;;;;;;;6.10;3.90;;;;;;;24.15;100.00;99687.92;105116;1259;60485;-53
2023/07/06 06:03:04;;;;;;;4.20;3.90;;;;;;;24.26;100.00;99686.64;105455;1258;60553;-54
2023/07/06 06:05:34;;;;;;;7.00;3.60;;;;;;;24.34;100.00;99685.83;106019;1256;73892;-54
2023/07/06 06:08:02;;;;;;;5.90;3.30;;;;;;;24.41;100.00;99683.57;105416;1254;67062;-53
2023/07/06 06:10:31;;;;;;;7.00;3.20;;;;;;;24.50;100.00;99683.71;105686;1256;72737;-52
2023/07/06 06:12:58;;;;;;;6.60;3.10;;;;;;;24.58;100.00;99672.05;105839;1254;61678;-51
2023/07/06 06:15:27;;;;;;;3.90;2.90;;;;;;;24.65;100.00;99663.90;105096;1257;60863;-53
2023/07/06 06:17:54;;;;;;;2.90;2.60;;;;;;;24.73;100.00;99662.66;105247;1256;73787;-54
2023/07/06 06:20:22;;;;;;;3.40;1.80;;;;;;;24.82;100.00;99656.56;109112;1254;66765;-56
2023/07/06 06:22:51;;;;;;;2.60;2.00;;;;;;;24.92;100.00;99656.17;105572;1254;75534;-54
2023/07/06 06:25:18;;;;;;;1.70;1.60;;;;;;;25.03;100.00;99650.02;109134;1253;58881;-55
2023/07/06 06:27:46;;;;;;;2.70;2.50;;;;;;;25.16;100.00;99651.39;109192;1253;60115;-54
2023/07/06 06:30:15;;;;;;;1.60;1.50;;;;;;;25.28;100.00;99646.20;108189;1253;72523;-55
2023/07/06 06:32:42;;;;;;;1.80;1.70;;;;;;;25.38;100.00;99647.11;105125;1253;67748;-53
2023/07/06 06:35:24;;;;;;;2.90;1.50;;;;;;;25.46;100.00;99644.46;108067;1253;73192;-55
2023/07/06 06:37:51;;;;;;;2.90;1.60;;;;;;;25.55;100.00;99633.36;109133;1256;60142;-55
2023/07/06 06:40:21;;;;;;;2.60;2.20;;;;;;;25.63;100.00;99627.38;109162;1253;58736;-55
2023/07/06 06:42:48;;;;;;;3.90;1.80;;;;;;;25.71;100.00;99621.52;109168;1253;73815;-53
2023/07/06 06:45:16;;;;;;;4.20;2.30;;;;;;;25.79;100.00;99618.33;109249;1253;66764;-54
2023/07/06 06:47:44;;;;;;;3.40;1.60;;;;;;;25.87;100.00;99617.98;109175;1253;71369;-56
2023/07/06 06:50:16;;;;;;;2.20;1.80;;;;;;;25.94;100.00;99613.86;109174;1252;61861;-55
2023/07/06 06:52:44;;;;;;;6.30;1.50;;;;;;;26.02;100.00;99611.54;109249;1254;60135;-52
2023/07/06 06:55:12;;;;;;;4.00;1.40;;;;;;;26.10;100.00;99605.80;109135;1253;73865;-52
2023/07/06 06:57:39;;;;;;;5.10;1.90;;;;;;;26.19;100.00;99601.93;109189;1253;66810;-55
2023/07/06 07:00:09;;;;;;;2.70;1.60;;;;;;;26.27;100.00;99598.78;109115;1254;73152;-54
2023/07/06 07:02:40;;;;;;;2.50;2.00;;;;;;;26.35;100.00;99596.05;109119;1253;60045;-56
2023/07/06 07:05:09;;;;;;;2.00;1.90;;;;;;;26.42;100.00;99596.67;109165;1254;60015;-54
2023/07/06 07:07:39;;;;;;;3.70;2.30;;;;;;;26.48;100.00;99596.38;109148;1253;74252;-55
2023/07/06 07:10:09;;;;;;;3.60;2.20;;;;;;;26.53;100.00;99598.56;105129;1254;65945;-54
2023/07/06 07:12:41;;;;;;;2.30;2.10;;;;;;;26.58;100.00;99597.05;107015;1253;71268;-54
2023/07/06 07:15:10;;;;;;;6.30;3.10;;;;;;;26.62;100.00;99590.30;105318;1257;60572;-54
2023/07/06 07:17:38;;;;;;;3.70;2.30;;;;;;;26.65;100.00;99589.86;105462;1256;60464;-54
2023/07/06 07:20:06;;;;;;;3.70;1.90;;;;;;;26.71;100.00;99590.74;106105;1253;73852;-55
2023/07/06 07:22:34;;;;;;;2.40;2.00;;;;;;;26.78;100.00;99592.67;105281;1254;64936;-54
2023/07/06 07:25:02;;;;;;;4.80;2.30;;;;;;;26.85;100.00;99589.77;106320;1254;72395;-53
2023/07/06 07:27:30;;;;;;;3.20;2.60;;;;;;;26.91;100.00;99585.96;105071;1257;61071;-53
2023/07/06 07:29:58;;;;;;;2.60;1.80;;;;;;;26.96;100.00;99581.85;104875;1252;59182;-54
2023/07/06 07:32:29;;;;;;;2.80;2.50;;;;;;;27.00;100.00;99583.36;105323;1256;72897;-56
2023/07/06 07:34:58;;;;;;;3.00;2.20;;;;;;;27.05;100.00;99582.05;105260;1256;66920;-53
2023/07/06 07:37:26;;;;;;;3.40;3.10;;;;;;;27.09;100.00;99582.52;105741;1257;72692;-53
2023/07/06 07:39:55;;;;;;;2.10;1.60;;;;;;;27.11;100.00;99580.54;105254;1252;60499;-57
2023/07/06 07:42:25;;;;;;;1.90;1.80;;;;;;;27.13;100.00;99579.49;105089;1257;60354;-54
2023/07/06 07:44:55;;;;;;;1.80;1.50;;;;;;;27.16;100.00;99581.84;104911;1255;74332;-54
2023/07/06 07:47:24;;;;;;;1.50;1.40;;;;;;;27.21;100.00;99575.90;104915;1257;67662;-53
2023/07/06 07:49:51;;;;;;;3.60;2.40;;;;;;;27.26;100.00;99575.83;104985;1256;71860;-54
2023/07/06 07:52:19;;;;;;;3.10;1.90;;;;;;;27.29;100.00;99575.75;104695;1254;60642;-54
2023/07/06 07:54:48;;;;;;;2.00;1.90;;;;;;;27.28;100.00;99573.92;104959;1254;60708;-53
2023/07/06 07:57:15;;;;;;;4.30;1.80;;;;;;;27.27;100.00;99575.13;104891;1252;73954;-54
2023/07/06 07:59:43;;;;;;;1.40;1.30;;;;;;;27.32;100.00;99574.39;105000;1256;65537;-53
2023/07/06 08:02:10;;;;;;;1.40;1.30;;;;;;;27.37;100.00;99565.98;105026;1258;73059;-54
2023/07/06 08:04:37;;;;;;;1.40;1.30;;;;;;;27.44;100.00;99563.45;104940;1256;60536;-54
2023/07/06 08:07:06;;;;;;;4.90;1.80;;;;;;;27.52;100.00;99562.73;104986;1256;61321;-54
2023/07/06 08:09:34;;;;;;;1.30;1.20;;;;;;;27.55;100.00;99555.36;104825;1253;73742;-54
2023/07/06 08:12:03;;;;;;;1.30;1.20;;;;;;;27.60;100.00;99554.41;105063;1254;65514;-53
2023/07/06 08:14:35;;;;;;;2.20;1.80;;;;;;;27.66;100.00;99557.48;105100;1256;74824;-53
2023/07/06 08:17:04;;;;;;;1.60;1.50;;;;;;;27.74;100.00;99559.03;105506;1256;60550;-53
2023/07/06 08:19:36;;;;;;;3.60;2.00;;;;;;;27.79;100.00;99555.74;105367;1255;60454;-55
2023/07/06 08:22:23;;;;;;;2.00;1.60;;;;;;;27.83;100.00;99556.86;105140;1257;73843;-55
2023/07/06 08:24:52;;;;;;;3.40;1.70;;;;;;;27.87;100.00;99560.60;105112;1256;66803;-54
2023/07/06 08:27:19;;;;;;;2.70;1.80;;;;;;;27.92;100.00;99560.40;105035;1254;74722;-53
2023/07/06 08:29:49;;;;;;;2.10;1.60;;;;;;;27.96;100.00;99559.71;105015;1256;60509;-53
2023/07/06 08:32:19;;;;;;;1.90;1.80;;;;;;;28.01;100.00;99553.17;105265;1254;60533;-55
2023/07/06 08:34:47;;;;;;;3.40;1.70;;;;;;;28.05;100.00;99546.77;105038;1257;73840;-54
2023/07/06 08:37:18;;;;;;;2.30;1.50;;;;;;;28.09;100.00;99541.67;105372;1254;66694;-54
2023/07/06 08:39:46;;;;;;;1.60;1.50;;;;;;;28.13;100.00;99539.83;105368;1254;71365;-54
2023/07/06 08:42:15;;;;;;;7.70;2.40;;;;;;;28.14;100.00;99544.88;105082;1253;61914;-54
2023/07/06 08:44:50;;;;;;;1.40;1.30;;;;;;;28.19;100.00;99540.61;105300;1252;60677;-53
2023/07/06 08:47:18;;;;;;;2.10;1.70;;;;;;;28.25;100.00;99539.46;105460;1256;74773;-54
2023/07/06 08:49:45;;;;;;;5.20;2.20;;;;;;;28.31;100.00;99536.36;105093;1254;66265;-53
2023/07/06 08:52:12;;;;;;;1.90;1.60;;;;;;;28.35;100.00;99535.80;105074;1253;72671;-55
2023/07/06 08:54:41;;;;;;;1.30;1.20;;;;;;;28.39;100.00;99532.34;105033;1254;60808;-54
2023/07/06 08:57:18;;;;;;;2.10;1.70;;;;;;;28.42;100.00;99530.83;105112;1256;60479;-54
2023/07/06 08:59:46;;;;;;;1.90;1.30;;;;;;;28.47;100.00;99527.79;105741;1254;72545;-53
2023/07/06 09:02:27;;;;;;;3.10;1.20;;;;;;;28.52;100.00;99524.39;105070;1253;65672;-52
2023/07/06 09:04:56;;;;;;;1.40;1.30;;;;;;;28.55;100.00;99526.02;108296;1254;70459;-55
2023/07/06 09:07:44;;;;;;;2.70;1.30;;;;;;;28.58;100.00;99521.15;104946;1253;60445;-54
2023/07/06 09:10:14;;;;;;;2.40;1.40;;;;;;;28.62;100.00;99521.23;104857;1259;60457;-53
2023/07/06 09:12:56;;;;;;;1.50;1.40;;;;;;;28.67;100.00;99514.35;105088;1254;76105;-52
2023/07/06 09:15:28;;;;;;;1.60;1.50;;;;;;;28.72;100.00;99508.58;105638;1256;66796;-52
2023/07/06 09:18:02;;;;;;;2.40;1.30;;;;;;;28.75;100.00;99505.79;106279;1256;71425;-55
2023/07/06 09:20:32;;;;;;;1.50;1.40;;;;;;;28.74;100.00;99509.23;105282;1254;60606;-55
2023/07/06 09:23:01;;;;;;;1.70;1.30;;;;;;;28.78;100.00;99507.85;105072;1256;60476;-54
2023/07/06 09:25:36;;;;;;;1.90;1.70;;;;;;;28.82;100.00;99509.70;105057;1258;74443;-54
2023/07/06 09:28:07;;;;;;;2.00;1.30;;;;;;;28.87;100.00;99510.89;109196;1253;65608;-54
2023/07/06 09:30:37;;;;;;;1.80;1.20;;;;;;;28.92;100.00;99507.20;109157;1254;71390;-56
2023/07/06 09:33:14;;;;;;;2.20;2.00;;;;;;;28.96;100.00;99510.95;109096;1254;60084;-55
2023/07/06 09:35:42;;;;;;;1.50;1.30;;;;;;;28.96;100.00;99505.31;109083;1252;60457;-55
2023/07/06 09:38:13;;;;;;;5.00;1.50;;;;;;;28.92;100.00;99505.15;109233;1253;75114;-55
2023/07/06 09:40:43;;;;;;;3.40;1.20;;;;;;;28.92;100.00;99501.08;109149;1253;66768;-56
2023/07/06 09:43:18;;;;;;;4.40;1.30;;;;;;;28.91;100.00;99504.00;109150;1254;72746;-56
2023/07/06 09:45:46;;;;;;;5.00;1.30;;;;;;;28.95;100.00;99504.84;109144;1254;60516;-56
2023/07/06 09:48:37;;;;;;;1.60;1.50;;;;;;;29.01;100.00;99504.59;109085;1253;60607;-54
2023/07/06 09:51:14;;;;;;;3.80;1.20;;;;;;;29.10;100.00;99506.44;109098;1254;72695;-56
2023/07/06 09:53:48;;;;;;;1.30;1.00;;;;;;;29.19;100.00;99508.90;109037;1254;65257;-55
2023/07/06 09:56:16;;;;;;;1.50;1.10;;;;;;;29.28;100.00;99506.02;109132;1254;72665;-55
2023/07/06 09:58:45;;;;;;;1.40;1.30;;;;;;;29.38;100.00;99504.08;109048;1252;59303;-54
2023/07/06 10:01:48;;;;;;;1.20;1.10;;;;;;;29.46;100.00;99500.39;109054;1256;58727;-55
2023/07/06 10:04:18;;;;;;;3.40;1.70;;;;;;;29.50;100.00;99502.94;109198;1253;72588;-56
2023/07/06 10:07:08;;;;;;;2.10;1.40;;;;;;;29.53;100.00;99502.86;109140;1256;65642;-55
2023/07/06 10:09:43;;;;;;;2.00;1.20;;;;;;;29.57;100.00;99507.27;109183;1253;73006;-56
2023/07/06 10:12:34;;;;;;;2.80;1.20;;;;;;;29.61;100.00;99504.17;108959;1253;60598;-55
2023/07/06 10:15:02;;;;;;;1.60;1.30;;;;;;;29.63;100.00;99501.61;109202;1254;58788;-55
2023/07/06 10:17:34;;;;;;;3.00;1.70;;;;;;;29.65;100.00;99497.89;105527;1254;73860;-54
2023/07/06 10:20:17;;;;;;;1.30;1.20;;;;;;;29.69;100.00;99494.38;106304;1254;66227;-52
2023/07/06 10:23:16;;;;;;;1.30;1.00;;;;;;;29.77;100.00;99490.70;104989;1253;71920;-54
2023/07/06 10:26:07;;;;;;;1.50;1.20;;;;;;;29.86;100.00;99489.31;105119;1256;60511;-55
2023/07/06 10:28:38;;;;;;;3.30;1.20;;;;;;;29.93;100.00;99487.54;105179;1252;60556;-55
2023/07/06 10:31:07;;;;;;;1.40;1.30;;;;;;;29.98;100.00;99486.27;105264;1254;74411;-53
2023/07/06 10:33:49;;;;;;;1.20;1.10;;;;;;;30.03;100.00;99485.09;105525;1254;66727;-55
2023/07/06 10:36:16;;;;;;;1.20;1.10;;;;;;;30.03;100.00;99482.05;105102;1253;71400;-54
2023/07/06 10:38:47;;;;;;;1.50;1.10;;;;;;;30.03;100.00;99478.98;104850;1254;60506;-53
2023/07/06 10:41:14;;;;;;;2.50;1.50;;;;;;;30.05;100.00;99479.73;105158;1256;60437;-54
2023/07/06 10:43:42;;;;;;;2.30;1.20;;;;;;;30.10;100.00;99479.33;104893;1254;72681;-55
2023/07/06 10:46:27;;;;;;;1.20;1.10;;;;;;;30.15;100.00;99483.44;104689;1254;65582;-52
2023/07/06 10:48:54;;;;;;;;;;;;;;;30.20;100.00;99478.56;104983;1256;72928;-54
2023/07/06 10:51:23;;;;;;;1.30;1.20;;;;;;;30.21;100.00;99475.60;108082;1253;60542;-55
2023/07/06 10:54:10;;;;;;;1.20;1.10;;;;;;;30.22;100.00;99472.98;105403;1252;61270;-56
2023/07/06 10:56:41;;;;;;;2.50;1.10;;;;;;;30.26;100.00;99474.41;104974;1254;72051;-56
2023/07/06 10:59:20;;;;;;;2.10;1.30;;;;;;;30.28;100.00;99468.17;105106;1253;65544;-55
2023/07/06 11:02:00;;;;;;;1.60;1.30;;;;;;;30.31;100.00;99470.48;105888;1258;72063;-56
2023/07/06 11:04:40;;;;;;;1.00;1.00;;;;;;;30.33;100.00;99465.64;105174;1254;60633;-53
2023/07/06 11:07:13;;;;;;;2.00;1.10;;;;;;;30.36;100.00;99462.02;104974;1253;60476;-55
2023/07/06 11:10:11;;;;;;;4.00;0.90;;;;;;;30.44;100.00;99464.05;105294;1253;74011;-55
2023/07/06 11:13:01;;;;;;;3.10;1.40;;;;;;;30.54;100.00;99462.05;104764;1259;65544;-55
2023/07/06 11:15:35;;;;;;;1.10;1.00;;;;;;;30.62;100.00;99459.69;105762;1253;73748;-55
2023/07/06 11:18:07;;;;;;;;;;;;;;;30.68;100.00;99450.73;105156;1254;60523;-53
2023/07/06 11:20:36;;;;;;;2.60;1.10;;;;;;;30.73;100.00;99454.02;104998;1259;60431;-56
2023/07/06 11:23:04;;;;;;;1.10;0.80;;;;;;;30.75;100.00;99454.30;105000;1260;74983;-54
2023/07/06 11:25:32;;;;;;;2.20;0.70;;;;;;;30.76;100.00;99453.06;104887;1254;68786;-55
2023/07/06 11:28:05;;;;;;;2.60;0.80;;;;;;;30.76;100.00;99451.34;104825;1259;71781;-55
2023/07/06 11:30:39;;;;;;;2.10;0.80;;;;;;;30.75;100.00;99447.97;105016;1253;60484;-56
2023/07/06 11:35:38;;;;;;;1.80;0.80;;;;;;;30.73;100.00;99464.23;101731;1292;601332;-55